sensor_id;sensor_type;location;lat;lon;timestamp;pressure;altitude;pressure_sealevel;temperature;humidity
1472;BME280;963;42.644;23.336;2023-04-07T00:01:42;93884.47;;;4.41;44.45
1472;BME280;963;42.644;23.336;2023-04-07T00:04:07;93893.06;;;4.42;44.27
1472;BME280;963;42.644;23.336;2023-04-07T00:06:33;93905.88;;;4.47;44.50
1472;BME280;963;42.644;23.336;2023-04-07T00:08:58;93879.28;;;4.41;44.36
1472;BME280;963;42.644;23.336;2023-04-07T00:11:23;93894.66;;;4.34;44.29
1472;BME280;963;42.644;23.336;2023-04-07T00:13:49;93894.66;;;4.22;44.42
1472;BME280;963;42.644;23.336;2023-04-07T00:16:15;93907.47;;;4.27;44.75
1472;BME280;963;42.644;23.336;2023-04-07T00:18:40;93898.47;;;4.24;44.51
1472;BME280;963;42.644;23.336;2023-04-07T00:21:06;93874.72;;;4.26;44.44
1472;BME280;963;42.644;23.336;2023-04-07T00:23:31;93892.38;;;4.20;44.19
1472;BME280;963;42.644;23.336;2023-04-07T00:25:57;93894.78;;;4.25;44.59
1472;BME280;963;42.644;23.336;2023-04-07T00:28:22;93873.94;;;4.25;44.28
1472;BME280;963;42.644;23.336;2023-04-07T00:30:47;93893.13;;;4.21;44.34
1472;BME280;963;42.644;23.336;2023-04-07T00:33:13;93893.38;;;4.28;44.49
1472;BME280;963;42.644;23.336;2023-04-07T00:35:38;93883.47;;;4.21;44.32
1472;BME280;963;42.644;23.336;2023-04-07T00:38:04;93889.88;;;4.24;44.04
1472;BME280;963;42.644;23.336;2023-04-07T00:40:29;93910.28;;;4.22;44.50
1472;BME280;963;42.644;23.336;2023-04-07T00:42:54;93889.56;;;4.25;43.98
1472;BME280;963;42.644;23.336;2023-04-07T00:45:20;93877.03;;;4.06;44.41
1472;BME280;963;42.644;23.336;2023-04-07T00:47:45;93881.31;;;4.23;44.09
1472;BME280;963;42.644;23.336;2023-04-07T00:50:11;93897.91;;;4.19;44.39
1472;BME280;963;42.644;23.336;2023-04-07T00:52:36;93900.66;;;4.01;44.76
1472;BME280;963;42.644;23.336;2023-04-07T00:55:02;93874.44;;;4.06;44.46
1472;BME280;963;42.644;23.336;2023-04-07T00:57:27;93895.50;;;4.14;44.46
1472;BME280;963;42.644;23.336;2023-04-07T00:59:53;93885.75;;;4.23;44.92
1472;BME280;963;42.644;23.336;2023-04-07T01:07:47;93888.78;;;4.13;44.44
1472;BME280;963;42.644;23.336;2023-04-07T01:10:20;93881.75;;;4.25;44.57
1472;BME280;963;42.644;23.336;2023-04-07T01:13:49;93888.56;;;4.18;44.78
1472;BME280;963;42.644;23.336;2023-04-07T01:15:57;93878.81;;;4.15;44.64
1472;BME280;963;42.644;23.336;2023-04-07T01:18:32;93886.63;;;4.27;44.57
1472;BME280;963;42.644;23.336;2023-04-07T01:21:05;93895.06;;;4.12;44.35
1472;BME280;963;42.644;23.336;2023-04-07T01:23:51;93881.84;;;4.17;44.41
1472;BME280;963;42.644;23.336;2023-04-07T01:26:30;93873.72;;;4.18;44.90
1472;BME280;963;42.644;23.336;2023-04-07T01:29:10;93873.41;;;4.20;44.69
1472;BME280;963;42.644;23.336;2023-04-07T01:31:39;93855.63;;;4.22;44.88
1472;BME280;963;42.644;23.336;2023-04-07T01:34:08;93867.75;;;4.18;44.70
1472;BME280;963;42.644;23.336;2023-04-07T01:36:34;93871.56;;;4.20;44.99
1472;BME280;963;42.644;23.336;2023-04-07T01:39:00;93874.28;;;4.24;44.83
1472;BME280;963;42.644;23.336;2023-04-07T01:41:27;93872.75;;;4.23;44.98
1472;BME280;963;42.644;23.336;2023-04-07T01:43:53;93871.03;;;4.27;45.03
1472;BME280;963;42.644;23.336;2023-04-07T01:46:19;93882.59;;;4.17;45.00
1472;BME280;963;42.644;23.336;2023-04-07T01:48:47;93862.00;;;4.24;44.99
1472;BME280;963;42.644;23.336;2023-04-07T01:51:13;93837.81;;;4.12;44.76
1472;BME280;963;42.644;23.336;2023-04-07T01:53:44;93853.09;;;4.13;45.21
1472;BME280;963;42.644;23.336;2023-04-07T01:56:10;93859.31;;;4.21;44.75
1472;BME280;963;42.644;23.336;2023-04-07T01:58:35;93865.38;;;4.25;44.42
1472;BME280;963;42.644;23.336;2023-04-07T02:01:00;93843.91;;;4.16;44.61
1472;BME280;963;42.644;23.336;2023-04-07T02:03:35;93835.59;;;4.01;44.69
1472;BME280;963;42.644;23.336;2023-04-07T02:06:06;93862.56;;;4.30;43.93
1472;BME280;963;42.644;23.336;2023-04-07T02:08:35;93857.56;;;4.25;43.77
1472;BME280;963;42.644;23.336;2023-04-07T02:11:02;93852.03;;;4.26;44.20
1472;BME280;963;42.644;23.336;2023-04-07T02:13:30;93831.84;;;4.11;44.21
1472;BME280;963;42.644;23.336;2023-04-07T02:15:57;93846.09;;;4.38;44.34
1472;BME280;963;42.644;23.336;2023-04-07T02:18:24;93845.25;;;4.58;43.72
1472;BME280;963;42.644;23.336;2023-04-07T02:20:51;93838.28;;;4.75;43.29
1472;BME280;963;42.644;23.336;2023-04-07T02:23:18;93859.56;;;4.52;43.67
1472;BME280;963;42.644;23.336;2023-04-07T02:25:43;93872.16;;;4.62;43.68
1472;BME280;963;42.644;23.336;2023-04-07T02:28:08;93861.94;;;4.69;43.41
1472;BME280;963;42.644;23.336;2023-04-07T02:30:34;93843.63;;;4.54;43.20
1472;BME280;963;42.644;23.336;2023-04-07T02:33:00;93852.25;;;4.33;43.77
1472;BME280;963;42.644;23.336;2023-04-07T02:35:26;93844.34;;;4.42;44.04
1472;BME280;963;42.644;23.336;2023-04-07T02:37:51;93848.59;;;4.47;43.48
1472;BME280;963;42.644;23.336;2023-04-07T02:40:17;93838.38;;;4.29;44.14
1472;BME280;963;42.644;23.336;2023-04-07T02:42:43;93856.41;;;4.59;44.12
1472;BME280;963;42.644;23.336;2023-04-07T02:45:09;93848.94;;;4.57;44.10
1472;BME280;963;42.644;23.336;2023-04-07T02:47:35;93844.66;;;4.40;44.17
1472;BME280;963;42.644;23.336;2023-04-07T02:50:01;93848.94;;;4.57;44.07
1472;BME280;963;42.644;23.336;2023-04-07T02:52:27;93853.69;;;4.67;44.10
1472;BME280;963;42.644;23.336;2023-04-07T02:54:52;93855.13;;;4.65;43.86
1472;BME280;963;42.644;23.336;2023-04-07T02:57:18;93850.22;;;4.51;43.92
1472;BME280;963;42.644;23.336;2023-04-07T02:59:43;93867.34;;;4.40;44.55
1472;BME280;963;42.644;23.336;2023-04-07T03:02:09;93847.50;;;4.35;44.72
1472;BME280;963;42.644;23.336;2023-04-07T03:04:34;93849.59;;;4.54;44.09
1472;BME280;963;42.644;23.336;2023-04-07T03:07:00;93870.53;;;4.58;44.08
1472;BME280;963;42.644;23.336;2023-04-07T03:09:26;93856.53;;;4.50;44.22
1472;BME280;963;42.644;23.336;2023-04-07T03:11:51;93876.34;;;4.43;44.98
1472;BME280;963;42.644;23.336;2023-04-07T03:14:17;93867.81;;;4.66;44.25
1472;BME280;963;42.644;23.336;2023-04-07T03:16:42;93896.91;;;4.68;44.18
1472;BME280;963;42.644;23.336;2023-04-07T03:19:08;93863.91;;;4.72;44.41
1472;BME280;963;42.644;23.336;2023-04-07T03:21:37;93854.34;;;4.77;43.88
1472;BME280;963;42.644;23.336;2023-04-07T03:24:03;93869.22;;;4.88;43.88
1472;BME280;963;42.644;23.336;2023-04-07T03:26:28;93877.78;;;4.77;44.21
1472;BME280;963;42.644;23.336;2023-04-07T03:28:54;93860.31;;;4.89;43.75
1472;BME280;963;42.644;23.336;2023-04-07T03:31:19;93862.41;;;4.84;43.90
1472;BME280;963;42.644;23.336;2023-04-07T03:33:45;93868.78;;;4.74;43.59
1472;BME280;963;42.644;23.336;2023-04-07T03:36:10;93877.69;;;4.73;43.81
1472;BME280;963;42.644;23.336;2023-04-07T03:38:36;93856.09;;;4.72;44.05
1472;BME280;963;42.644;23.336;2023-04-07T03:41:01;93876.81;;;4.69;44.54
1472;BME280;963;42.644;23.336;2023-04-07T03:43:27;93857.19;;;4.59;44.41
1472;BME280;963;42.644;23.336;2023-04-07T03:45:53;93869.00;;;4.57;44.32
1472;BME280;963;42.644;23.336;2023-04-07T03:48:18;93859.34;;;4.69;44.75
1472;BME280;963;42.644;23.336;2023-04-07T03:50:44;93850.22;;;4.76;44.49
1472;BME280;963;42.644;23.336;2023-04-07T03:53:09;93853.03;;;4.83;44.34
1472;BME280;963;42.644;23.336;2023-04-07T03:55:35;93840.66;;;4.80;44.17
1472;BME280;963;42.644;23.336;2023-04-07T03:58:01;93868.03;;;4.98;43.84
1472;BME280;963;42.644;23.336;2023-04-07T04:00:26;93856.84;;;4.97;44.27
1472;BME280;963;42.644;23.336;2023-04-07T04:02:52;93852.06;;;4.99;44.26
1472;BME280;963;42.644;23.336;2023-04-07T04:05:17;93844.34;;;5.03;44.29
1472;BME280;963;42.644;23.336;2023-04-07T04:07:43;93853.03;;;4.95;44.56
1472;BME280;963;42.644;23.336;2023-04-07T04:10:09;93875.28;;;5.05;44.36
1472;BME280;963;42.644;23.336;2023-04-07T04:12:34;93864.53;;;5.06;44.66
1472;BME280;963;42.644;23.336;2023-04-07T04:15:00;93867.59;;;4.84;45.20
1472;BME280;963;42.644;23.336;2023-04-07T04:17:26;93853.94;;;4.87;44.84
1472;BME280;963;42.644;23.336;2023-04-07T04:19:51;93874.84;;;5.02;44.38
1472;BME280;963;42.644;23.336;2023-04-07T04:22:17;93874.97;;;5.06;44.24
1472;BME280;963;42.644;23.336;2023-04-07T04:24:42;93863.53;;;5.11;43.86
1472;BME280;963;42.644;23.336;2023-04-07T04:27:08;93884.97;;;5.04;44.33
1472;BME280;963;42.644;23.336;2023-04-07T04:29:33;93891.38;;;4.94;44.46
1472;BME280;963;42.644;23.336;2023-04-07T04:31:59;93887.47;;;5.00;44.08
1472;BME280;963;42.644;23.336;2023-04-07T04:34:24;93877.13;;;5.04;44.22
1472;BME280;963;42.644;23.336;2023-04-07T04:36:49;93879.53;;;5.09;43.89
1472;BME280;963;42.644;23.336;2023-04-07T04:39:15;93883.97;;;5.09;43.51
1472;BME280;963;42.644;23.336;2023-04-07T04:41:40;93907.19;;;5.14;44.30
1472;BME280;963;42.644;23.336;2023-04-07T04:44:06;93876.91;;;5.09;44.49
1472;BME280;963;42.644;23.336;2023-04-07T04:46:31;93883.94;;;5.33;44.06
1472;BME280;963;42.644;23.336;2023-04-07T04:48:57;93904.81;;;5.09;44.92
1472;BME280;963;42.644;23.336;2023-04-07T04:51:22;93886.25;;;5.22;46.35
1472;BME280;963;42.644;23.336;2023-04-07T04:53:48;93914.16;;;5.22;47.42
1472;BME280;963;42.644;23.336;2023-04-07T04:56:13;93917.75;;;5.05;49.12
1472;BME280;963;42.644;23.336;2023-04-07T04:58:39;93907.53;;;4.76;50.66
1472;BME280;963;42.644;23.336;2023-04-07T05:01:06;93887.13;;;4.65;51.25
1472;BME280;963;42.644;23.336;2023-04-07T05:03:31;93916.88;;;4.89;50.86
1472;BME280;963;42.644;23.336;2023-04-07T05:05:57;93910.59;;;5.02;50.64
1472;BME280;963;42.644;23.336;2023-04-07T05:08:22;93918.81;;;4.80;51.02
1472;BME280;963;42.644;23.336;2023-04-07T05:10:48;93916.22;;;4.80;51.55
1472;BME280;963;42.644;23.336;2023-04-07T05:13:13;93905.78;;;4.67;51.75
1472;BME280;963;42.644;23.336;2023-04-07T05:15:40;93922.09;;;4.89;51.82
1472;BME280;963;42.644;23.336;2023-04-07T05:18:05;93912.34;;;4.86;51.21
1472;BME280;963;42.644;23.336;2023-04-07T05:20:31;93906.91;;;4.91;50.83
1472;BME280;963;42.644;23.336;2023-04-07T05:22:56;93918.41;;;5.02;50.97
1472;BME280;963;42.644;23.336;2023-04-07T05:25:22;93929.91;;;5.01;50.57
1472;BME280;963;42.644;23.336;2023-04-07T05:27:47;93928.63;;;4.95;49.37
1472;BME280;963;42.644;23.336;2023-04-07T05:30:13;93934.38;;;3.98;51.70
1472;BME280;963;42.644;23.336;2023-04-07T05:32:39;93942.38;;;4.26;50.89
1472;BME280;963;42.644;23.336;2023-04-07T05:35:05;93925.53;;;4.56;50.86
1472;BME280;963;42.644;23.336;2023-04-07T05:37:30;93916.38;;;4.38;51.40
1472;BME280;963;42.644;23.336;2023-04-07T05:39:56;93933.84;;;4.37;51.68
1472;BME280;963;42.644;23.336;2023-04-07T05:42:21;93926.53;;;4.64;51.70
1472;BME280;963;42.644;23.336;2023-04-07T05:44:47;93939.22;;;4.78;51.41
1472;BME280;963;42.644;23.336;2023-04-07T05:47:12;93929.25;;;4.80;51.46
1472;BME280;963;42.644;23.336;2023-04-07T05:49:37;93931.94;;;4.71;52.18
1472;BME280;963;42.644;23.336;2023-04-07T05:52:10;93940.13;;;5.06;51.61
1472;BME280;963;42.644;23.336;2023-04-07T05:54:35;93943.25;;;5.12;51.14
1472;BME280;963;42.644;23.336;2023-04-07T05:57:01;93923.63;;;4.90;51.09
1472;BME280;963;42.644;23.336;2023-04-07T05:59:26;93966.72;;;5.12;51.17
1472;BME280;963;42.644;23.336;2023-04-07T06:01:52;93939.91;;;5.11;51.15
1472;BME280;963;42.644;23.336;2023-04-07T06:04:17;93924.66;;;4.52;52.14
1472;BME280;963;42.644;23.336;2023-04-07T06:06:42;93926.53;;;4.64;52.14
1472;BME280;963;42.644;23.336;2023-04-07T06:09:08;93946.09;;;4.94;51.53
1472;BME280;963;42.644;23.336;2023-04-07T06:11:33;93924.38;;;4.21;52.98
1472;BME280;963;42.644;23.336;2023-04-07T06:13:59;93920.31;;;3.78;54.41
1472;BME280;963;42.644;23.336;2023-04-07T06:16:24;93926.03;;;4.04;53.78
1472;BME280;963;42.644;23.336;2023-04-07T06:18:49;93935.19;;;4.11;54.31
1472;BME280;963;42.644;23.336;2023-04-07T06:21:15;93936.38;;;4.46;53.68
1472;BME280;963;42.644;23.336;2023-04-07T06:23:40;93935.97;;;4.81;52.66
1472;BME280;963;42.644;23.336;2023-04-07T06:26:09;93944.78;;;4.88;52.28
1472;BME280;963;42.644;23.336;2023-04-07T06:28:36;93946.09;;;5.31;51.91
1472;BME280;963;42.644;23.336;2023-04-07T06:31:02;93934.16;;;5.30;51.32
1472;BME280;963;42.644;23.336;2023-04-07T06:33:27;93933.81;;;5.31;50.76
1472;BME280;963;42.644;23.336;2023-04-07T06:35:53;93917.47;;;5.59;49.62
1472;BME280;963;42.644;23.336;2023-04-07T06:38:18;93924.00;;;5.53;50.26
1472;BME280;963;42.644;23.336;2023-04-07T06:40:44;93922.00;;;5.74;48.95
1472;BME280;963;42.644;23.336;2023-04-07T06:43:09;93918.59;;;5.86;48.97
1472;BME280;963;42.644;23.336;2023-04-07T06:45:35;93922.38;;;6.01;48.76
1472;BME280;963;42.644;23.336;2023-04-07T06:48:00;93895.75;;;5.95;47.80
1472;BME280;963;42.644;23.336;2023-04-07T06:50:25;93920.91;;;6.31;47.58
1472;BME280;963;42.644;23.336;2023-04-07T06:52:51;93922.91;;;6.50;45.98
1472;BME280;963;42.644;23.336;2023-04-07T06:55:16;93903.44;;;6.47;46.38
1472;BME280;963;42.644;23.336;2023-04-07T06:57:42;93938.44;;;6.74;46.86
1472;BME280;963;42.644;23.336;2023-04-07T07:00:07;93921.47;;;6.68;47.08
1472;BME280;963;42.644;23.336;2023-04-07T07:02:33;93932.63;;;6.81;46.75
1472;BME280;963;42.644;23.336;2023-04-07T07:04:59;93928.66;;;7.03;45.37
1472;BME280;963;42.644;23.336;2023-04-07T07:07:24;93925.28;;;6.86;42.12
1472;BME280;963;42.644;23.336;2023-04-07T07:09:50;93924.75;;;6.65;42.20
1472;BME280;963;42.644;23.336;2023-04-07T07:12:16;93951.50;;;6.90;41.23
1472;BME280;963;42.644;23.336;2023-04-07T07:14:42;93944.66;;;7.01;41.26
1472;BME280;963;42.644;23.336;2023-04-07T07:17:08;93944.53;;;7.10;40.89
1472;BME280;963;42.644;23.336;2023-04-07T07:19:33;93918.09;;;6.68;41.41
1472;BME280;963;42.644;23.336;2023-04-07T07:22:00;93920.66;;;6.80;41.35
1472;BME280;963;42.644;23.336;2023-04-07T07:24:25;93935.97;;;6.66;41.43
1472;BME280;963;42.644;23.336;2023-04-07T07:26:51;93955.56;;;7.03;40.79
1472;BME280;963;42.644;23.336;2023-04-07T07:29:16;93926.97;;;7.10;40.68
1472;BME280;963;42.644;23.336;2023-04-07T07:31:42;93940.13;;;7.14;40.88
1472;BME280;963;42.644;23.336;2023-04-07T07:34:07;93964.75;;;6.97;40.88
1472;BME280;963;42.644;23.336;2023-04-07T07:36:32;93964.84;;;7.01;41.00
1472;BME280;963;42.644;23.336;2023-04-07T07:38:58;93945.59;;;7.25;40.64
1472;BME280;963;42.644;23.336;2023-04-07T07:41:23;93948.59;;;7.42;40.64
1472;BME280;963;42.644;23.336;2023-04-07T07:43:50;93953.81;;;7.58;40.31
1472;BME280;963;42.644;23.336;2023-04-07T07:46:15;93964.28;;;7.58;39.89
1472;BME280;963;42.644;23.336;2023-04-07T07:48:41;93955.53;;;7.50;39.89
1472;BME280;963;42.644;23.336;2023-04-07T07:51:06;93987.00;;;7.54;39.34
1472;BME280;963;42.644;23.336;2023-04-07T07:53:32;93956.22;;;7.47;39.96
1472;BME280;963;42.644;23.336;2023-04-07T07:55:57;93953.81;;;7.58;39.91
1472;BME280;963;42.644;23.336;2023-04-07T07:58:23;93966.09;;;7.73;39.56
1472;BME280;963;42.644;23.336;2023-04-07T08:00:48;93962.75;;;7.57;39.77
1472;BME280;963;42.644;23.336;2023-04-07T08:03:15;93977.91;;;7.32;39.63
1472;BME280;963;42.644;23.336;2023-04-07T08:05:40;93956.44;;;7.42;39.33
1472;BME280;963;42.644;23.336;2023-04-07T08:08:06;93960.16;;;7.41;39.30
1472;BME280;963;42.644;23.336;2023-04-07T08:10:32;93956.81;;;7.25;39.07
1472;BME280;963;42.644;23.336;2023-04-07T08:12:57;93958.56;;;7.37;39.16
1472;BME280;963;42.644;23.336;2023-04-07T08:15:23;93955.91;;;7.17;39.32
1472;BME280;963;42.644;23.336;2023-04-07T08:17:48;93965.03;;;7.59;39.42
1472;BME280;963;42.644;23.336;2023-04-07T08:20:14;93959.78;;;7.94;38.90
1472;BME280;963;42.644;23.336;2023-04-07T08:22:40;93943.59;;;8.07;37.82
1472;BME280;963;42.644;23.336;2023-04-07T08:25:07;93972.50;;;7.76;38.78
1472;BME280;963;42.644;23.336;2023-04-07T08:27:32;93958.91;;;7.86;39.46
1472;BME280;963;42.644;23.336;2023-04-07T08:30:00;93951.75;;;7.67;39.75
1472;BME280;963;42.644;23.336;2023-04-07T08:32:39;93953.72;;;8.09;39.58
1472;BME280;963;42.644;23.336;2023-04-07T08:35:05;93961.06;;;8.38;39.11
1472;BME280;963;42.644;23.336;2023-04-07T08:37:31;93965.25;;;8.43;39.04
1472;BME280;963;42.644;23.336;2023-04-07T08:39:57;93962.69;;;8.27;38.53
1472;BME280;963;42.644;23.336;2023-04-07T08:42:26;93990.69;;;8.23;38.80
1472;BME280;963;42.644;23.336;2023-04-07T08:44:54;93947.94;;;8.00;39.26
1472;BME280;963;42.644;23.336;2023-04-07T08:47:21;93961.44;;;8.02;39.11
1472;BME280;963;42.644;23.336;2023-04-07T08:49:51;93956.47;;;8.16;39.42
1472;BME280;963;42.644;23.336;2023-04-07T08:52:17;93944.06;;;8.32;38.93
1472;BME280;963;42.644;23.336;2023-04-07T08:54:46;93959.25;;;8.42;38.12
1472;BME280;963;42.644;23.336;2023-04-07T08:57:13;93953.50;;;8.18;38.33
1472;BME280;963;42.644;23.336;2023-04-07T08:59:40;93962.63;;;8.24;38.83
1472;BME280;963;42.644;23.336;2023-04-07T09:02:08;93952.16;;;8.24;38.54
1472;BME280;963;42.644;23.336;2023-04-07T09:04:34;93968.69;;;8.28;39.72
1472;BME280;963;42.644;23.336;2023-04-07T09:06:59;93955.06;;;8.19;38.69
1472;BME280;963;42.644;23.336;2023-04-07T09:09:26;93957.75;;;8.41;38.57
1472;BME280;963;42.644;23.336;2023-04-07T09:11:52;93948.94;;;8.72;38.70
1472;BME280;963;42.644;23.336;2023-04-07T09:14:17;93944.41;;;8.92;37.83
1472;BME280;963;42.644;23.336;2023-04-07T09:16:45;93953.41;;;9.18;37.18
1472;BME280;963;42.644;23.336;2023-04-07T09:19:11;93946.31;;;9.18;37.09
1472;BME280;963;42.644;23.336;2023-04-07T09:21:47;93954.19;;;8.95;37.05
1472;BME280;963;42.644;23.336;2023-04-07T09:24:27;93957.78;;;8.87;36.96
1472;BME280;963;42.644;23.336;2023-04-07T09:27:12;93950.34;;;8.89;37.04
1472;BME280;963;42.644;23.336;2023-04-07T09:29:39;93958.50;;;8.84;37.39
1472;BME280;963;42.644;23.336;2023-04-07T09:32:04;93954.72;;;9.04;37.35
1472;BME280;963;42.644;23.336;2023-04-07T09:34:32;93953.13;;;9.23;37.24
1472;BME280;963;42.644;23.336;2023-04-07T09:36:58;93964.41;;;9.27;37.00
1472;BME280;963;42.644;23.336;2023-04-07T09:39:24;93950.31;;;9.35;37.19
1472;BME280;963;42.644;23.336;2023-04-07T09:41:50;93967.44;;;9.52;37.24
1472;BME280;963;42.644;23.336;2023-04-07T09:44:20;93942.28;;;9.51;37.53
1472;BME280;963;42.644;23.336;2023-04-07T09:46:57;93950.50;;;9.49;37.64
1472;BME280;963;42.644;23.336;2023-04-07T09:49:23;93949.50;;;9.57;37.05
1472;BME280;963;42.644;23.336;2023-04-07T09:51:59;93961.56;;;9.62;37.80
1472;BME280;963;42.644;23.336;2023-04-07T09:54:39;93960.16;;;9.68;37.81
1472;BME280;963;42.644;23.336;2023-04-07T09:57:10;93969.56;;;9.69;37.60
1472;BME280;963;42.644;23.336;2023-04-07T09:59:38;93962.91;;;9.26;37.80
1472;BME280;963;42.644;23.336;2023-04-07T10:02:06;93961.59;;;9.65;37.29
1472;BME280;963;42.644;23.336;2023-04-07T10:04:31;93950.13;;;9.74;36.87
1472;BME280;963;42.644;23.336;2023-04-07T10:06:57;93963.69;;;9.79;36.80
1472;BME280;963;42.644;23.336;2023-04-07T10:09:26;93969.56;;;9.69;36.73
1472;BME280;963;42.644;23.336;2023-04-07T10:11:53;93959.31;;;9.90;37.21
1472;BME280;963;42.644;23.336;2023-04-07T10:14:21;93958.75;;;10.04;36.93
1472;BME280;963;42.644;23.336;2023-04-07T10:16:47;93961.06;;;9.79;37.47
1472;BME280;963;42.644;23.336;2023-04-07T10:19:13;93975.66;;;9.50;38.10
1472;BME280;963;42.644;23.336;2023-04-07T10:21:40;93980.59;;;9.55;37.14
1472;BME280;963;42.644;23.336;2023-04-07T10:26:56;93948.44;;;9.62;37.40
1472;BME280;963;42.644;23.336;2023-04-07T10:29:24;93974.34;;;9.90;37.10
1472;BME280;963;42.644;23.336;2023-04-07T10:31:51;93963.91;;;9.97;36.94
1472;BME280;963;42.644;23.336;2023-04-07T10:34:17;93971.59;;;10.09;36.53
1472;BME280;963;42.644;23.336;2023-04-07T10:37:11;93980.31;;;9.87;37.04
1472;BME280;963;42.644;23.336;2023-04-07T10:39:38;93987.03;;;9.84;37.41
1472;BME280;963;42.644;23.336;2023-04-07T10:42:04;93960.47;;;9.36;37.20
1472;BME280;963;42.644;23.336;2023-04-07T10:47:07;93968.50;;;9.47;37.79
1472;BME280;963;42.644;23.336;2023-04-07T10:49:33;93960.41;;;9.59;37.33
1472;BME280;963;42.644;23.336;2023-04-07T10:54:36;93967.19;;;9.34;37.68
1472;BME280;963;42.644;23.336;2023-04-07T10:59:28;93973.75;;;9.47;38.83
1472;BME280;963;42.644;23.336;2023-04-07T11:04:45;93993.13;;;9.65;40.00
1472;BME280;963;42.644;23.336;2023-04-07T11:07:12;93985.94;;;9.62;39.93
1472;BME280;963;42.644;23.336;2023-04-07T11:09:39;93976.97;;;9.63;39.62
1472;BME280;963;42.644;23.336;2023-04-07T11:12:05;94000.16;;;9.84;39.31
1472;BME280;963;42.644;23.336;2023-04-07T11:14:31;93980.69;;;9.89;39.94
1472;BME280;963;42.644;23.336;2023-04-07T11:16:58;93983.50;;;10.03;39.65
1472;BME280;963;42.644;23.336;2023-04-07T11:19:25;93990.03;;;10.13;39.98
1472;BME280;963;42.644;23.336;2023-04-07T11:22:17;93983.00;;;10.20;39.13
1472;BME280;963;42.644;23.336;2023-04-07T11:24:44;93975.56;;;10.26;39.13
1472;BME280;963;42.644;23.336;2023-04-07T11:27:13;93988.34;;;10.27;38.79
1472;BME280;963;42.644;23.336;2023-04-07T11:29:39;93979.31;;;10.25;39.02
1472;BME280;963;42.644;23.336;2023-04-07T11:32:05;93981.38;;;10.12;39.25
1472;BME280;963;42.644;23.336;2023-04-07T11:34:32;93992.84;;;10.27;39.68
1472;BME280;963;42.644;23.336;2023-04-07T11:36:58;93971.13;;;10.33;39.26
1472;BME280;963;42.644;23.336;2023-04-07T11:39:42;93974.97;;;10.40;39.21
1472;BME280;963;42.644;23.336;2023-04-07T11:42:10;93975.94;;;10.58;38.86
1472;BME280;963;42.644;23.336;2023-04-07T11:44:46;93980.09;;;10.62;39.04
1472;BME280;963;42.644;23.336;2023-04-07T11:47:12;93978.28;;;10.70;39.44
1472;BME280;963;42.644;23.336;2023-04-07T11:49:44;93972.34;;;10.77;38.98
1472;BME280;963;42.644;23.336;2023-04-07T11:52:10;93980.53;;;10.68;39.34
1472;BME280;963;42.644;23.336;2023-04-07T11:54:43;93969.66;;;10.70;39.43
1472;BME280;963;42.644;23.336;2023-04-07T11:57:23;93982.53;;;10.78;38.95
1472;BME280;963;42.644;23.336;2023-04-07T11:59:48;93980.03;;;10.92;39.65
1472;BME280;963;42.644;23.336;2023-04-07T12:02:30;93981.34;;;10.76;39.92
1472;BME280;963;42.644;23.336;2023-04-07T12:04:56;93976.38;;;11.04;39.22
1472;BME280;963;42.644;23.336;2023-04-07T12:07:21;93975.50;;;10.89;39.46
1472;BME280;963;42.644;23.336;2023-04-07T12:09:47;93973.97;;;10.88;39.41
1472;BME280;963;42.644;23.336;2023-04-07T12:12:13;93983.28;;;10.79;40.18
1472;BME280;963;42.644;23.336;2023-04-07T12:14:38;93981.66;;;11.08;39.51
1472;BME280;963;42.644;23.336;2023-04-07T12:17:04;93978.44;;;11.25;39.28
1472;BME280;963;42.644;23.336;2023-04-07T12:19:30;93977.31;;;11.26;39.19
1472;BME280;963;42.644;23.336;2023-04-07T12:21:59;93967.56;;;11.30;38.62
1472;BME280;963;42.644;23.336;2023-04-07T12:24:25;93971.97;;;11.15;38.63
1472;BME280;963;42.644;23.336;2023-04-07T12:26:51;93983.41;;;11.37;38.71
1472;BME280;963;42.644;23.336;2023-04-07T12:29:17;93995.13;;;11.43;38.57
1472;BME280;963;42.644;23.336;2023-04-07T12:31:44;93979.72;;;11.45;38.44
1472;BME280;963;42.644;23.336;2023-04-07T12:34:09;93982.59;;;11.26;39.27
1472;BME280;963;42.644;23.336;2023-04-07T12:36:35;94009.28;;;11.24;39.10
1472;BME280;963;42.644;23.336;2023-04-07T12:39:00;93973.63;;;11.34;38.83
1472;BME280;963;42.644;23.336;2023-04-07T12:41:26;93974.34;;;11.31;38.99
1472;BME280;963;42.644;23.336;2023-04-07T12:43:51;93984.53;;;11.36;38.61
1472;BME280;963;42.644;23.336;2023-04-07T12:46:18;93975.19;;;11.42;38.60
1472;BME280;963;42.644;23.336;2023-04-07T12:48:43;93969.94;;;11.49;38.79
1472;BME280;963;42.644;23.336;2023-04-07T12:51:09;93986.56;;;11.53;38.85
1472;BME280;963;42.644;23.336;2023-04-07T12:53:35;93998.53;;;11.47;38.35
1472;BME280;963;42.644;23.336;2023-04-07T12:56:01;94000.84;;;11.52;38.60
1472;BME280;963;42.644;23.336;2023-04-07T12:58:26;93986.56;;;11.53;38.57
1472;BME280;963;42.644;23.336;2023-04-07T13:00:52;93995.13;;;10.99;38.83
1472;BME280;963;42.644;23.336;2023-04-07T13:03:17;93980.63;;;11.16;39.10
1472;BME280;963;42.644;23.336;2023-04-07T13:05:43;93993.13;;;11.26;39.23
1472;BME280;963;42.644;23.336;2023-04-07T13:08:08;93990.94;;;11.35;38.65
1472;BME280;963;42.644;23.336;2023-04-07T13:10:34;93987.88;;;11.30;39.01
1472;BME280;963;42.644;23.336;2023-04-07T13:13:00;93992.00;;;11.27;38.95
1472;BME280;963;42.644;23.336;2023-04-07T13:15:25;93992.66;;;11.17;39.24
1472;BME280;963;42.644;23.336;2023-04-07T13:17:52;93995.38;;;11.27;39.14
1472;BME280;963;42.644;23.336;2023-04-07T13:20:17;94003.63;;;11.22;38.97
1472;BME280;963;42.644;23.336;2023-04-07T13:22:43;93995.56;;;11.08;39.49
1472;BME280;963;42.644;23.336;2023-04-07T13:25:08;94004.72;;;11.18;39.07
1472;BME280;963;42.644;23.336;2023-04-07T13:27:34;93995.31;;;11.17;39.66
1472;BME280;963;42.644;23.336;2023-04-07T13:29:59;93999.00;;;11.12;39.79
1472;BME280;963;42.644;23.336;2023-04-07T13:32:25;93988.31;;;10.94;39.92
1472;BME280;963;42.644;23.336;2023-04-07T13:34:51;94000.53;;;10.76;40.12
1472;BME280;963;42.644;23.336;2023-04-07T13:37:17;94000.75;;;10.60;40.56
1472;BME280;963;42.644;23.336;2023-04-07T13:39:43;94021.81;;;10.64;40.59
1472;BME280;963;42.644;23.336;2023-04-07T13:42:09;94009.16;;;10.73;40.53
1472;BME280;963;42.644;23.336;2023-04-07T13:44:34;94018.06;;;10.65;40.68
1472;BME280;963;42.644;23.336;2023-04-07T13:47:01;94022.34;;;10.77;40.24